createdAt,value
2022-08-11T00:01:05.317Z,2.08
2022-08-11T00:03:43.288Z,1.85
2022-08-11T00:06:11.336Z,1.85
2022-08-11T00:08:38.285Z,1.70
2022-08-11T00:11:06.645Z,1.88
2022-08-11T00:13:35.106Z,2.03
2022-08-11T00:16:02.258Z,2.08
2022-08-11T00:18:29.981Z,1.85
2022-08-11T00:20:58.893Z,2.17
2022-08-11T00:23:26.158Z,2.20
2022-08-11T00:25:53.406Z,1.95
2022-08-11T00:28:24.189Z,2.10
2022-08-11T00:30:54.672Z,2.30
2022-08-11T00:33:41.791Z,2.17
2022-08-11T00:36:10.815Z,1.90
2022-08-11T00:38:39.356Z,2.55
2022-08-11T00:41:24.632Z,2.30
2022-08-11T00:44:10.083Z,2.20
2022-08-11T00:46:42.774Z,2.22
2022-08-11T00:49:11.922Z,2.00
2022-08-11T00:52:02.166Z,1.95
2022-08-11T00:54:50.106Z,2.33
2022-08-11T00:57:38.782Z,2.45
2022-08-11T01:00:19.405Z,2.30
2022-08-11T01:03:17.852Z,2.38
2022-08-11T01:05:44.434Z,2.47
2022-08-11T01:08:20.995Z,2.40
2022-08-11T01:11:02.956Z,3.45
2022-08-11T01:13:48.727Z,2.55
2022-08-11T01:16:33.755Z,2.33
2022-08-11T01:19:09.465Z,2.50
2022-08-11T01:21:35.950Z,2.40
2022-08-11T01:24:11.613Z,2.65
2022-08-11T01:26:38.084Z,2.47
2022-08-11T01:29:49.212Z,2.65
2022-08-11T01:32:36.123Z,2.53
2022-08-11T01:35:30.654Z,2.50
2022-08-11T01:38:15.991Z,2.58
2022-08-11T01:40:48.516Z,2.97
2022-08-11T01:43:42.164Z,2.67
2022-08-11T01:46:27.468Z,2.50
2022-08-11T01:50:06.896Z,3.05
2022-08-11T01:52:08.219Z,2.72
2022-08-11T01:54:43.993Z,3.00
2022-08-11T01:57:20.710Z,2.45
2022-08-11T01:59:51.841Z,2.20
2022-08-11T02:02:47.677Z,2.65
2022-08-11T02:05:33.099Z,2.88
2022-08-11T02:08:05.456Z,2.75
2022-08-11T02:10:52.988Z,3.47
2022-08-11T02:13:40.318Z,2.90
2022-08-11T02:16:14.778Z,2.67
2022-08-11T02:19:01.217Z,2.78
2022-08-11T02:21:48.505Z,2.80
2022-08-11T02:24:19.349Z,2.60
2022-08-11T02:26:55.964Z,2.95
2022-08-11T02:29:33.091Z,2.75
2022-08-11T02:32:36.245Z,2.45
2022-08-11T02:35:10.235Z,2.97
2022-08-11T02:37:43.706Z,2.70
2022-08-11T02:40:22.947Z,2.85
2022-08-11T02:43:04.444Z,2.78
2022-08-11T02:45:47.279Z,3.00
2022-08-11T02:48:51.352Z,3.03
2022-08-11T02:51:26.096Z,3.30
2022-08-11T02:54:11.369Z,2.92
2022-08-11T02:57:05.498Z,3.00
2022-08-11T03:00:07.516Z,2.90
2022-08-11T03:02:43.276Z,3.40
2022-08-11T03:05:11.917Z,3.13
2022-08-11T03:07:52.196Z,2.78
2022-08-11T03:10:18.894Z,3.08
2022-08-11T03:13:14.227Z,3.08
2022-08-11T03:16:27.387Z,3.40
2022-08-11T03:18:58.468Z,3.30
2022-08-11T03:21:39.538Z,3.15
2022-08-11T03:24:19.564Z,3.03
2022-08-11T03:26:58.404Z,3.33
2022-08-11T03:29:41.020Z,3.40
2022-08-11T03:32:11.647Z,4.05
2022-08-11T03:34:39.526Z,3.10
2022-08-11T03:37:39.260Z,3.75
2022-08-11T03:40:51.236Z,3.70
2022-08-11T03:43:20.546Z,4.18
2022-08-11T03:45:47.142Z,3.78
2022-08-11T03:48:19.557Z,3.42
2022-08-11T03:51:01.005Z,4.00
2022-08-11T03:53:34.309Z,3.80
2022-08-11T03:56:00.813Z,3.85
2022-08-11T03:58:46.116Z,4.40
2022-08-11T04:01:16.189Z,3.90
2022-08-11T04:03:43.441Z,3.67
2022-08-11T04:06:25.601Z,4.25
2022-08-11T04:09:13.266Z,4.00
2022-08-11T04:11:58.792Z,3.90
2022-08-11T04:15:00.893Z,4.25
2022-08-11T04:17:27.436Z,3.70
2022-08-11T04:19:57.878Z,5.20
2022-08-11T04:22:42.515Z,4.70
2022-08-11T04:25:15.039Z,4.70
2022-08-11T04:28:00.603Z,4.38
2022-08-11T04:30:41.409Z,4.20
2022-08-11T04:33:26.659Z,3.90
2022-08-11T04:36:19.147Z,4.20
2022-08-11T04:39:05.672Z,4.18
2022-08-11T04:42:09.752Z,3.88
2022-08-11T04:44:39.835Z,4.38
2022-08-11T04:48:03.585Z,4.88
2022-08-11T04:51:08.834Z,4.50
2022-08-11T04:54:17.767Z,4.05
2022-08-11T04:57:05.526Z,4.57
2022-08-11T04:59:50.922Z,4.40
2022-08-11T05:02:37.971Z,5.20
2022-08-11T05:05:27.871Z,4.57
2022-08-11T05:08:13.777Z,4.82
2022-08-11T05:11:01.440Z,5.20
2022-08-11T05:13:48.141Z,4.72
2022-08-11T05:16:35.967Z,4.90
2022-08-11T05:19:27.030Z,5.15
2022-08-11T05:22:15.454Z,4.70
2022-08-11T05:25:03.092Z,4.97
2022-08-11T05:28:15.755Z,4.78
2022-08-11T05:31:01.462Z,5.18
2022-08-11T05:33:53.309Z,5.43
2022-08-11T05:36:36.228Z,5.63
2022-08-11T05:39:33.754Z,5.22
2022-08-11T05:42:39.374Z,5.45
2022-08-11T05:46:04.108Z,5.18
2022-08-11T05:48:35.565Z,4.57
2022-08-11T05:51:30.041Z,5.28
2022-08-11T05:54:29.341Z,5.20
2022-08-11T05:56:58.477Z,4.57
2022-08-11T05:59:28.262Z,4.80
2022-08-11T06:02:00.286Z,3.90
2022-08-11T06:04:28.301Z,4.90
2022-08-11T06:07:00.505Z,4.32
2022-08-11T06:09:37.983Z,4.32
2022-08-11T06:12:19.699Z,4.00
2022-08-11T06:14:46.428Z,3.90
2022-08-11T06:17:16.982Z,3.55
2022-08-11T06:19:47.392Z,3.88
2022-08-11T06:22:20.361Z,3.40
2022-08-11T06:25:00.831Z,3.30
2022-08-11T06:27:29.949Z,3.33
2022-08-11T06:29:56.952Z,3.40
2022-08-11T06:32:37.322Z,3.38
2022-08-11T06:35:10.182Z,3.38
2022-08-11T06:37:43.498Z,3.40
2022-08-11T06:40:20.020Z,3.20
2022-08-11T06:42:50.296Z,3.60
2022-08-11T06:45:25.977Z,3.60
2022-08-11T06:47:53.273Z,3.83
2022-08-11T06:50:40.722Z,3.45
2022-08-11T06:53:12.675Z,3.13
2022-08-11T06:56:01.078Z,3.95
2022-08-11T06:58:53.215Z,3.20
2022-08-11T07:01:35.887Z,3.38
2022-08-11T07:04:07.954Z,3.72
2022-08-11T07:06:51.169Z,3.30
2022-08-11T07:10:01.384Z,3.00
2022-08-11T07:12:53.060Z,3.00
2022-08-11T07:16:12.525Z,3.42
2022-08-11T07:18:46.197Z,3.15
2022-08-11T07:22:01.757Z,3.10
2022-08-11T07:25:01.388Z,3.05
2022-08-11T07:27:50.721Z,2.83
2022-08-11T07:30:20.708Z,2.88
2022-08-11T07:32:55.031Z,3.08
2022-08-11T07:35:28.677Z,2.90
2022-08-11T07:38:01.880Z,2.75
2022-08-11T07:40:29.422Z,2.80
2022-08-11T07:42:57.067Z,3.30
2022-08-11T07:45:43.437Z,3.35
2022-08-11T07:48:29.516Z,3.40
2022-08-11T07:51:15.339Z,3.03
2022-08-11T07:53:58.418Z,2.92
2022-08-11T07:56:48.714Z,2.80
2022-08-11T08:00:04.106Z,2.78
2022-08-11T08:02:46.715Z,2.40
2022-08-11T08:05:33.480Z,2.88
2022-08-11T08:08:20.096Z,2.85
2022-08-11T08:11:06.596Z,2.92
2022-08-11T08:13:52.333Z,2.58
2022-08-11T08:16:39.869Z,3.40
2022-08-11T08:19:06.604Z,2.72
2022-08-11T08:21:33.581Z,2.60
2022-08-11T08:24:02.169Z,2.45
2022-08-11T08:26:51.742Z,3.15
2022-08-11T08:29:37.923Z,2.63
2022-08-11T08:32:05.141Z,3.08
2022-08-11T08:34:33.656Z,2.47
2022-08-11T08:37:02.056Z,2.30
2022-08-11T08:39:31.803Z,2.20
2022-08-11T08:42:02.617Z,3.40
2022-08-11T08:44:39.146Z,2.63
2022-08-11T08:47:09.922Z,2.85
2022-08-11T08:49:40.859Z,2.60
2022-08-11T08:52:30.632Z,2.72
2022-08-11T08:54:58.220Z,2.25
2022-08-11T08:57:28.082Z,2.53
2022-08-11T08:59:55.342Z,2.33
2022-08-11T09:02:34.752Z,2.40
2022-08-11T09:05:02.821Z,2.47
2022-08-11T09:07:39.027Z,2.40
2022-08-11T09:10:07.659Z,2.33
2022-08-11T09:12:36.262Z,2.40
2022-08-11T09:15:08.079Z,2.42
2022-08-11T09:17:49.796Z,2.95
2022-08-11T09:20:27.473Z,2.50
2022-08-11T09:26:30.458Z,2.65
2022-08-11T09:28:58.916Z,2.25
2022-08-11T09:31:26.798Z,2.33
2022-08-11T09:33:54.668Z,2.40
2022-08-11T09:36:40.823Z,3.33
2022-08-11T09:39:31.180Z,2.20
2022-08-11T09:42:04.227Z,2.33
2022-08-11T09:44:51.374Z,2.38
2022-08-11T09:47:24.489Z,3.60
2022-08-11T09:49:53.321Z,2.78
2022-08-11T09:52:20.635Z,2.22
2022-08-11T09:54:48.539Z,2.40
2022-08-11T09:57:41.877Z,2.00
2022-08-11T10:00:13.148Z,2.00
2022-08-11T10:02:44.050Z,2.53
2022-08-11T10:05:30.854Z,2.25
2022-08-11T10:07:57.906Z,1.90
2022-08-11T10:10:24.829Z,1.98
2022-08-11T10:13:04.296Z,2.70
2022-08-11T10:15:34.800Z,2.78
2022-08-11T10:18:23.492Z,2.25
2022-08-11T10:20:52.119Z,2.30
2022-08-11T10:24:00.430Z,2.85
2022-08-11T10:26:44.455Z,2.15
2022-08-11T10:29:36.855Z,2.20
2022-08-11T10:32:42.796Z,2.25
2022-08-11T10:35:22.788Z,2.53
2022-08-11T10:38:07.650Z,2.20
2022-08-11T10:40:40.361Z,2.40
2022-08-11T10:43:13.167Z,2.25
2022-08-11T10:45:59.035Z,2.25
2022-08-11T10:48:27.841Z,2.30
2022-08-11T10:51:13.415Z,5.10
2022-08-11T10:54:01.806Z,2.30
2022-08-11T10:56:48.097Z,2.42
2022-08-11T10:59:16.075Z,2.40
2022-08-11T11:01:45.376Z,2.45
2022-08-11T11:04:16.784Z,2.58
2022-08-11T11:07:04.119Z,2.42
2022-08-11T11:09:41.966Z,2.38
2022-08-11T11:12:46.052Z,2.22
2022-08-11T11:15:32.963Z,2.03
2022-08-11T11:18:07.581Z,2.53
2022-08-11T11:20:47.772Z,2.38
2022-08-11T11:23:24.503Z,2.20
2022-08-11T11:26:15.646Z,2.28
2022-08-11T11:28:48.276Z,2.25
2022-08-11T11:31:33.045Z,2.75
2022-08-11T11:34:23.635Z,2.45
2022-08-11T11:36:54.706Z,2.60
2022-08-11T11:39:22.563Z,2.42
2022-08-11T11:41:51.800Z,2.42
2022-08-11T11:44:22.850Z,2.33
2022-08-11T11:46:50.268Z,2.40
2022-08-11T11:51:54.278Z,2.83
2022-08-11T11:54:23.455Z,2.20
2022-08-11T11:56:53.342Z,2.63
2022-08-11T11:59:40.282Z,2.53
2022-08-11T12:02:11.823Z,2.28
2022-08-11T12:04:43.864Z,2.30
2022-08-11T12:07:29.941Z,2.13
2022-08-11T12:09:57.433Z,2.35
2022-08-11T12:12:43.157Z,2.50
2022-08-11T12:15:10.569Z,1.95
2022-08-11T12:17:40.044Z,2.15
2022-08-11T12:20:32.155Z,2.13
2022-08-11T12:23:14.798Z,2.10
2022-08-11T12:26:25.280Z,2.30
2022-08-11T12:28:50.318Z,2.22
2022-08-11T12:31:16.938Z,2.60
2022-08-11T12:33:44.676Z,2.10
2022-08-11T12:36:15.770Z,2.10
2022-08-11T12:38:44.318Z,2.20
2022-08-11T12:41:39.679Z,2.25
2022-08-11T12:44:27.862Z,2.20
2022-08-11T12:46:54.780Z,2.40
2022-08-11T12:49:45.371Z,2.30
2022-08-11T12:52:20.070Z,2.30
2022-08-11T12:54:50.828Z,2.30
2022-08-11T12:57:44.209Z,2.20
2022-08-11T13:00:30.306Z,2.25
2022-08-11T13:03:16.105Z,2.67
2022-08-11T13:05:45.169Z,2.10
2022-08-11T13:08:13.954Z,2.33
2022-08-11T13:11:02.521Z,2.38
2022-08-11T13:13:55.698Z,2.33
2022-08-11T13:16:17.216Z,2.38
2022-08-11T13:18:44.608Z,2.83
2022-08-11T13:21:19.986Z,2.30
2022-08-11T13:23:59.797Z,2.67
2022-08-11T13:26:43.363Z,2.45
2022-08-11T13:29:19.559Z,2.30
2022-08-11T13:31:47.846Z,2.20
2022-08-11T13:34:15.727Z,2.38
2022-08-11T13:36:43.217Z,2.20
2022-08-11T13:39:11.020Z,2.10
2022-08-11T13:41:39.390Z,2.25
2022-08-11T13:44:09.633Z,2.30
2022-08-11T13:46:36.697Z,2.50
2022-08-11T13:49:06.692Z,2.15
2022-08-11T13:51:36.791Z,2.22
2022-08-11T13:54:05.703Z,2.50
2022-08-11T13:56:35.893Z,2.45
2022-08-11T13:59:03.680Z,2.50
2022-08-11T14:02:22.977Z,2.58
2022-08-11T14:04:29.815Z,2.53
2022-08-11T14:07:01.693Z,2.47
2022-08-11T14:09:29.063Z,2.58
2022-08-11T14:12:21.201Z,2.35
2022-08-11T14:14:56.041Z,2.40
2022-08-11T14:17:35.873Z,2.90
2022-08-11T14:20:35.400Z,2.40
2022-08-11T14:22:57.776Z,2.63
2022-08-11T14:26:00.974Z,2.60
2022-08-11T14:28:34.146Z,2.53
2022-08-11T14:31:05.081Z,2.53
2022-08-11T14:33:58.487Z,2.42
2022-08-11T14:36:23.135Z,2.60
2022-08-11T14:38:50.200Z,2.67
2022-08-11T14:41:36.472Z,2.95
2022-08-11T14:44:21.989Z,2.92
2022-08-11T14:47:23.932Z,2.90
2022-08-11T14:50:10.291Z,2.47
2022-08-11T14:52:52.521Z,2.65
2022-08-11T14:55:38.388Z,2.83
2022-08-11T14:58:05.383Z,2.97
2022-08-11T15:00:34.265Z,2.50
2022-08-11T15:03:13.240Z,3.15
2022-08-11T15:06:00.155Z,2.95
2022-08-11T15:08:49.385Z,2.88
2022-08-11T15:11:37.260Z,3.20
2022-08-11T15:14:06.006Z,3.13
2022-08-11T15:16:51.237Z,2.72
2022-08-11T15:19:21.302Z,2.60
2022-08-11T15:22:07.266Z,3.20
2022-08-11T15:24:37.307Z,2.63
2022-08-11T15:27:34.905Z,3.10
2022-08-11T15:30:32.442Z,2.80
2022-08-11T15:33:19.932Z,3.20
2022-08-11T15:36:05.219Z,2.95
2022-08-11T15:38:36.233Z,2.83
2022-08-11T15:41:23.014Z,2.72
2022-08-11T15:44:10.317Z,2.42
2022-08-11T15:46:49.160Z,3.00
2022-08-11T15:49:23.803Z,2.95
2022-08-11T15:52:06.634Z,3.28
2022-08-11T15:54:33.656Z,3.00
2022-08-11T15:57:05.153Z,2.75
2022-08-11T15:59:52.145Z,2.67
2022-08-11T16:02:40.286Z,2.80
2022-08-11T16:05:08.412Z,2.10
2022-08-11T16:07:40.630Z,2.67
2022-08-11T16:10:10.769Z,2.80
2022-08-11T16:13:08.010Z,2.40
2022-08-11T16:15:58.397Z,2.60
2022-08-11T16:18:40.473Z,2.78
2022-08-11T16:21:08.381Z,2.65
2022-08-11T16:23:36.997Z,2.53
2022-08-11T16:27:08.534Z,2.40
2022-08-11T16:28:55.748Z,2.30
2022-08-11T16:31:23.652Z,2.80
2022-08-11T16:33:51.819Z,2.83
2022-08-11T16:36:38.708Z,2.65
2022-08-11T16:39:06.401Z,2.40
2022-08-11T16:41:56.558Z,2.60
2022-08-11T16:44:42.579Z,2.53
2022-08-11T16:47:16.585Z,2.50
2022-08-11T16:49:52.791Z,2.50
2022-08-11T16:52:20.078Z,2.95
2022-08-11T16:54:47.689Z,2.55
2022-08-11T16:57:39.101Z,2.38
2022-08-11T17:00:08.311Z,2.78
2022-08-11T17:02:59.069Z,2.30
2022-08-11T17:05:53.756Z,2.25
2022-08-11T17:08:43.598Z,2.75
2022-08-11T17:11:41.580Z,2.85
2022-08-11T17:14:12.893Z,2.80
2022-08-11T17:16:42.771Z,2.50
2022-08-11T17:20:39.929Z,2.42
2022-08-11T17:22:37.716Z,2.22
2022-08-11T17:25:06.671Z,2.50
2022-08-11T17:27:35.259Z,2.55
2022-08-11T17:30:02.978Z,2.42
2022-08-11T17:32:55.728Z,2.63
2022-08-11T17:35:31.223Z,2.83
2022-08-11T17:38:01.147Z,3.15
2022-08-11T17:40:28.392Z,2.80
2022-08-11T17:43:15.177Z,2.70
2022-08-11T17:46:00.875Z,2.90
2022-08-11T17:48:28.879Z,2.75
2022-08-11T17:51:06.455Z,2.95
2022-08-11T17:54:18.078Z,2.70
2022-08-11T17:57:00.559Z,2.60
2022-08-11T17:59:49.142Z,2.85
2022-08-11T18:02:35.390Z,3.63
2022-08-11T18:05:09.577Z,3.45
2022-08-11T18:07:59.434Z,2.50
2022-08-11T18:10:44.724Z,3.03
2022-08-11T18:13:29.947Z,3.05
2022-08-11T18:16:15.189Z,2.70
2022-08-11T18:19:00.491Z,2.35
2022-08-11T18:21:46.801Z,3.03
2022-08-11T18:24:55.886Z,3.10
2022-08-11T18:27:41.671Z,2.78
2022-08-11T18:30:27.442Z,3.20
2022-08-11T18:36:19.460Z,2.55
2022-08-11T18:39:06.671Z,2.60
2022-08-11T18:41:54.563Z,2.75
2022-08-11T18:44:41.734Z,3.00
2022-08-11T18:47:29.609Z,2.53
2022-08-11T18:50:21.062Z,2.78
2022-08-11T18:53:24.263Z,2.63
2022-08-11T18:56:11.496Z,2.78
2022-08-11T18:59:01.832Z,2.78
2022-08-11T19:01:57.404Z,2.90
2022-08-11T19:04:44.462Z,2.88
2022-08-11T19:07:31.006Z,3.00
2022-08-11T19:10:17.997Z,2.42
2022-08-11T19:13:03.648Z,3.10
2022-08-11T19:15:49.517Z,2.85
2022-08-11T19:18:36.802Z,2.58
2022-08-11T19:21:22.005Z,2.35
2022-08-11T19:24:10.283Z,2.33
2022-08-11T19:26:56.567Z,2.60
2022-08-11T19:30:05.049Z,2.60
2022-08-11T19:32:49.868Z,3.08
2022-08-11T19:35:35.091Z,2.65
2022-08-11T19:38:21.375Z,2.85
2022-08-11T19:41:07.076Z,3.00
2022-08-11T19:43:54.372Z,2.65
2022-08-11T19:46:41.405Z,2.80
2022-08-11T19:49:28.270Z,2.65
2022-08-11T19:52:16.760Z,2.70
2022-08-11T19:55:04.091Z,2.72
2022-08-11T19:57:50.065Z,3.25
2022-08-11T20:00:37.790Z,3.10
2022-08-11T20:03:26.842Z,3.10
2022-08-11T20:06:13.624Z,2.92
2022-08-11T20:09:02.627Z,3.00
2022-08-11T20:11:55.152Z,3.13
2022-08-11T20:14:40.917Z,3.10
2022-08-11T20:17:26.898Z,2.78
2022-08-11T20:20:12.936Z,2.90
2022-08-11T20:22:59.662Z,2.90
2022-08-11T20:25:45.951Z,2.95
2022-08-11T20:28:32.018Z,2.83
2022-08-11T20:31:40.374Z,2.53
2022-08-11T20:34:30.498Z,3.05
2022-08-11T20:37:21.442Z,3.03
2022-08-11T20:40:23.849Z,3.00
2022-08-11T20:44:07.049Z,2.90
2022-08-11T20:46:17.955Z,2.95
2022-08-11T20:49:05.332Z,2.78
2022-08-11T20:51:51.164Z,2.90
2022-08-11T20:54:43.634Z,2.88
2022-08-11T21:00:38.816Z,2.58
2022-08-11T21:03:35.550Z,3.13
2022-08-11T21:06:31.502Z,2.92
2022-08-11T21:09:19.938Z,3.15
2022-08-11T21:12:06.123Z,2.97
2022-08-11T21:14:52.821Z,2.50
2022-08-11T21:17:44.823Z,2.88
2022-08-11T21:20:46.318Z,2.70
2022-08-11T21:23:37.089Z,2.72
2022-08-11T21:26:25.823Z,2.85
2022-08-11T21:29:12.902Z,3.15
2022-08-11T21:31:59.169Z,3.20
2022-08-11T21:34:44.753Z,2.80
2022-08-11T21:37:31.085Z,3.15
2022-08-11T21:40:17.831Z,2.75
2022-08-11T21:43:04.159Z,2.63
2022-08-11T21:45:50.674Z,2.80
2022-08-11T21:48:36.343Z,2.60
2022-08-11T21:51:21.599Z,2.95
2022-08-11T21:54:06.964Z,2.60
2022-08-11T21:56:52.129Z,3.30
2022-08-11T21:59:42.708Z,2.88
2022-08-11T22:02:27.906Z,2.80
2022-08-11T22:05:12.960Z,2.70
2022-08-11T22:07:58.838Z,2.75
2022-08-11T22:10:44.134Z,2.90
2022-08-11T22:13:32.332Z,2.95
2022-08-11T22:16:18.145Z,2.65
2022-08-11T22:19:05.070Z,3.40
2022-08-11T22:21:57.029Z,2.50
2022-08-11T22:24:49.006Z,2.80
2022-08-11T22:27:34.277Z,2.47
2022-08-11T22:30:19.349Z,2.80
2022-08-11T22:33:04.688Z,2.95
2022-08-11T22:35:51.441Z,2.75
2022-08-11T22:38:37.718Z,2.70
2022-08-11T22:41:22.849Z,3.15
2022-08-11T22:44:08.083Z,3.22
2022-08-11T22:46:54.292Z,2.70
2022-08-11T22:49:42.475Z,2.65
2022-08-11T22:52:43.767Z,3.05
2022-08-11T22:55:28.957Z,2.90
2022-08-11T22:58:14.206Z,2.83
2022-08-11T23:00:59.459Z,3.13
2022-08-11T23:03:45.228Z,2.80
2022-08-11T23:06:31.244Z,3.00
2022-08-11T23:09:16.427Z,2.90
2022-08-11T23:12:06.717Z,3.20
2022-08-11T23:14:53.932Z,2.58
2022-08-11T23:17:39.341Z,2.85
2022-08-11T23:20:42.068Z,2.60
2022-08-11T23:23:30.257Z,2.75
2022-08-11T23:26:16.057Z,3.00
2022-08-11T23:29:04.525Z,3.10
2022-08-11T23:31:51.940Z,2.72
2022-08-11T23:35:02.561Z,3.08
2022-08-11T23:37:44.355Z,3.30
2022-08-11T23:40:29.530Z,3.25
2022-08-11T23:43:15.870Z,3.20
2022-08-11T23:46:02.434Z,3.00
2022-08-11T23:48:48.833Z,3.25
2022-08-11T23:51:40.825Z,2.83
2022-08-11T23:54:26.922Z,3.33
2022-08-11T23:57:12.599Z,3.22
2022-08-11T23:59:57.910Z,2.92
